Homer, Nebraska
Current Conditions -  °F | °C
As of 6:52 PM on Friday 24 Oct 2014 (Local Time) from KSUX Reporting Station
Clear Clear  
Wind Chill: 64°   Ceiling: Unl
Heat Index: 64°   Visibility: 10mi
Dew Point: 46°   Wind: 5mph
Humidity: 52%   Direction: 350°N
Pressure: 29.94"   Gusts: NA
Location:  42.32°N, 96.49°W
Report Text: KSUX 242352Z AUTO 35004KT 10SM CLR 18/08 A2994 RMK AO2 SLP136 T01780078 10256 20172 53015
Loading
Personal Weather Stations






























Interactive Weather Map
Tropical Storm Tracking
New forecast layout! Learn more

10-Day Weather Forecast

Advertisements
Track Severe Weather on mobile